Terminal Aerodrome Forecast
Issued by NWS Louisville, KY

Home | Current Version | Previous Version | Text Only | Print | Product List | Glossary On
Versions: 1 2 3 4 5 6 7 8 9 10 11 12 13 14 15 16 17 18 19 20 21 22
171
FTUS43 KLMK 071120
TAFSDF
TAF
KSDF 071120Z 0712/0818 18004KT P6SM FEW250
     FM071500 21012G20KT P6SM SCT120
     FM072300 22007KT P6SM BKN060
     FM080500 23008KT P6SM VCSH BKN050
     FM081000 27012KT P6SM VCSH SCT014 BKN022=

USA.gov is the U.S. government's official web portal to all federal, state and local government web resources and services.